Strona główna
METAR-TAF:

METAR-TAF

Lotnisko :

Platforma wiertnicza

Awg-1, Holandia

Szerokość geograficzna: 53-29-30N, Długość geograficzna: 5-56-30E, wysokość: 33 m

Aktualna obserwacja pogody

Raport powstał 45 minut temu, godzina 09:25 UTC
Wiatr 26 kt od zachodnio-północny zachód
Temperatura 12°C
Wilgotność 88%
Ciśnienie 1000 hPa
Widzialność 10 km lub więcej
Mało chmury na wysokości 1000 ft
Rozproszone chmury na wysokości 3600 ft
Przerywane chmury na wysokości 4400 ft
słaby deszcz

METAR: EHMA 070925Z AUTO 30026KT 9999 -RA FEW010 SCT036 BKN044 12/10 Q1000

czas: 12:10 (10:10 UTC)


TAF: brakujący

Obserwacja i prognoza pogody dla ponad 4000 lotnisk (raport METAR i TAF).

Dostępne stacje oznaczono żółtymi i czerwonymi punktami na mapie.

Najedź kursorem aby zobaczyć nazwę stacji.

Kliknij aby zobaczyć obserwacje i prognozy pogody.

Aby zmienić mapę: kliknij na zielony przycisk z czarnym krzyżykiem, aby powiększyć; na zielony przycisk z myślnikiem, aby pomniejszyć; na zielone strzałki, aby przejść do map sąsiednich.


METAR-TAF: